Time;durP1;ratioP1;P1;durP2;ratioP2;P2;SDS_P1;SDS_P2;PMS_P1;PMS_P2;Temp;Humidity;BMP_temperature;BMP_pressure;BME280_temperature;BME280_humidity;BME280_pressure;Samples;Min_cycle;Max_cycle;Signal;HPM_P1;HPM_P2
2023/10/05 00:02:08;;;;;;;0.00;0.00;;;;;;;12.68;82.23;101222.09;5036619;28;20446;-73
2023/10/05 00:04:40;;;;;;;0.00;0.00;;;;;;;12.65;82.36;101217.13;5046299;28;20028;-73
2023/10/05 00:07:30;;;;;;;0.00;0.00;;;;;;;12.56;82.50;101213.19;5039640;28;20178;-72
2023/10/05 00:09:57;;;;;;;0.00;0.00;;;;;;;12.62;82.79;101236.84;5055420;28;20034;-72
2023/10/05 00:12:22;;;;;;;0.00;0.00;;;;;;;12.59;82.46;101226.41;5053765;28;20060;-71
2023/10/05 00:14:55;;;;;;;0.00;0.00;;;;;;;12.58;82.85;101224.72;5043454;28;20453;-71
2023/10/05 00:17:22;;;;;;;0.00;0.00;;;;;;;12.60;82.65;101222.56;5035390;28;20021;-73
2023/10/05 00:19:47;;;;;;;0.00;0.00;;;;;;;12.50;82.86;101209.59;5057437;28;20021;-75
2023/10/05 00:22:13;;;;;;;0.00;0.00;;;;;;;12.59;83.39;101234.63;5061960;28;20063;-75
2023/10/05 00:24:40;;;;;;;0.00;0.00;;;;;;;12.39;83.15;101205.88;5057293;28;20024;-72
2023/10/05 00:27:08;;;;;;;0.00;0.00;;;;;;;12.49;83.38;101221.63;5023654;28;20016;-71
2023/10/05 00:29:43;;;;;;;0.00;0.00;;;;;;;12.42;83.74;101215.53;5038643;28;21554;-71
2023/10/05 00:32:33;;;;;;;0.00;0.00;;;;;;;12.43;83.63;101219.13;5037459;28;20721;-72
2023/10/05 00:35:15;;;;;;;0.00;0.00;;;;;;;12.38;84.01;101215.22;5052727;28;20036;-71
2023/10/05 00:37:44;;;;;;;0.00;0.00;;;;;;;12.43;84.31;101221.84;5048220;28;20028;-73
2023/10/05 00:40:25;;;;;;;0.00;0.00;;;;;;;12.41;83.97;101224.84;5048677;28;20032;-71
2023/10/05 00:42:51;;;;;;;0.00;0.00;;;;;;;12.41;84.01;101213.84;5042668;28;20039;-72
2023/10/05 00:45:17;;;;;;;0.00;0.00;;;;;;;12.46;84.32;101224.09;5021144;28;21125;-72
2023/10/05 00:47:43;;;;;;;0.00;0.00;;;;;;;12.41;84.61;101219.34;5063097;28;20029;-71
2023/10/05 00:50:11;;;;;;;0.00;0.00;;;;;;;12.37;84.16;101224.53;5034948;28;20028;-71
2023/10/05 00:52:37;;;;;;;0.00;0.00;;;;;;;12.39;84.30;101227.00;5054528;28;20075;-73
2023/10/05 00:55:11;;;;;;;0.00;0.00;;;;;;;12.34;84.38;101227.81;5054025;28;20114;-72
2023/10/05 00:57:37;;;;;;;0.00;0.00;;;;;;;12.36;84.82;101233.84;5026188;28;20148;-72
2023/10/05 01:02:31;;;;;;;0.00;0.00;;;;;;;12.32;84.70;101227.22;5059539;28;20413;-72
2023/10/05 01:04:57;;;;;;;0.00;0.00;;;;;;;12.33;84.66;101217.91;5060710;28;20135;-71
2023/10/05 01:07:43;;;;;;;0.00;0.00;;;;;;;12.31;84.29;101217.34;5027411;28;20151;-70
2023/10/05 01:12:39;;;;;;;0.00;0.00;;;;;;;12.35;84.32;101210.25;5046665;28;20131;-71
2023/10/05 01:15:15;;;;;;;0.00;0.00;;;;;;;12.30;84.34;101207.47;5036800;28;20028;-72
2023/10/05 01:17:42;;;;;;;0.00;0.00;;;;;;;12.32;84.30;101215.41;5054794;28;22222;-71
2023/10/05 01:20:26;;;;;;;0.00;0.00;;;;;;;12.30;84.45;101215.69;5020807;28;20463;-71
2023/10/05 01:22:57;;;;;;;0.00;0.00;;;;;;;12.22;84.42;101199.69;5035133;28;20033;-72
2023/10/05 01:25:22;;;;;;;0.00;0.00;;;;;;;12.23;84.02;101201.34;5060301;28;20328;-72
2023/10/05 01:27:50;;;;;;;0.00;0.00;;;;;;;12.23;83.85;101207.66;5037290;28;20588;-72
2023/10/05 01:30:16;;;;;;;0.00;0.00;;;;;;;12.24;84.44;101208.50;5045245;28;20104;-71
2023/10/05 01:32:42;;;;;;;0.00;0.00;;;;;;;12.23;84.08;101204.91;5061933;28;20115;-72
2023/10/05 01:35:13;;;;;;;0.00;0.00;;;;;;;12.29;84.06;101194.00;5031232;28;20017;-71
2023/10/05 01:37:45;;;;;;;0.00;0.00;;;;;;;12.36;83.90;101189.97;5066113;28;20468;-71
2023/10/05 01:40:21;;;;;;;0.00;0.00;;;;;;;12.44;83.65;101191.44;5049959;28;20059;-71
2023/10/05 01:42:47;;;;;;;0.00;0.00;;;;;;;12.44;83.48;101190.56;5042299;28;20107;-71
2023/10/05 01:45:17;;;;;;;0.00;0.00;;;;;;;12.48;83.54;101203.50;5039256;28;20033;-73
2023/10/05 01:47:44;;;;;;;0.00;0.00;;;;;;;12.48;83.31;101208.19;5048662;28;20078;-72
2023/10/05 01:50:18;;;;;;;0.00;0.00;;;;;;;12.48;83.04;101209.00;5059031;28;20020;-73
2023/10/05 01:52:45;;;;;;;0.00;0.00;;;;;;;12.50;82.92;101208.72;5061180;28;20416;-69
2023/10/05 01:55:12;;;;;;;0.10;0.10;;;;;;;12.52;83.35;101210.13;5025801;28;20106;-73
2023/10/05 01:57:37;;;;;;;0.00;0.00;;;;;;;12.49;82.99;101209.84;5046274;28;20044;-71
2023/10/05 02:00:13;;;;;;;0.00;0.00;;;;;;;12.52;83.39;101214.81;5042691;28;20052;-71
2023/10/05 02:02:42;;;;;;;0.00;0.00;;;;;;;12.50;82.73;101211.47;5046244;28;20036;-72
2023/10/05 02:05:10;;;;;;;0.00;0.00;;;;;;;12.52;82.65;101212.06;5062782;28;20024;-72
2023/10/05 02:07:36;;;;;;;0.10;0.10;;;;;;;12.54;82.87;101212.63;5041378;28;20036;-72
2023/10/05 02:10:09;;;;;;;0.00;0.00;;;;;;;12.54;83.26;101210.72;5064572;28;20020;-73
2023/10/05 02:12:35;;;;;;;0.00;0.00;;;;;;;12.50;83.17;101206.00;5049743;28;20060;-72
2023/10/05 02:15:04;;;;;;;0.00;0.00;;;;;;;12.48;83.60;101203.50;4994330;28;20025;-72
2023/10/05 02:17:29;;;;;;;0.00;0.00;;;;;;;12.55;82.98;101217.03;5037341;28;20029;-72
2023/10/05 02:19:56;;;;;;;0.00;0.00;;;;;;;12.55;83.21;101203.31;5028152;28;20029;-72
2023/10/05 02:22:22;;;;;;;0.00;0.00;;;;;;;12.52;82.78;101177.22;5010470;28;20454;-72
2023/10/05 02:24:51;;;;;;;0.00;0.00;;;;;;;12.61;82.54;101179.50;5035699;28;20441;-71
2023/10/05 02:27:17;;;;;;;0.00;0.00;;;;;;;12.61;83.11;101184.97;5039232;28;20033;-72
2023/10/05 02:29:44;;;;;;;0.00;0.00;;;;;;;12.59;82.80;101193.47;5028307;28;20029;-71
2023/10/05 02:32:14;;;;;;;0.00;0.00;;;;;;;12.58;82.69;101194.56;5021422;28;20375;-73
2023/10/05 02:37:24;;;;;;;0.00;0.00;;;;;;;12.62;83.30;101187.47;5045027;28;20067;-72
2023/10/05 02:39:50;;;;;;;0.00;0.00;;;;;;;12.58;82.79;101176.16;5030096;28;20419;-71
2023/10/05 02:42:21;;;;;;;0.00;0.00;;;;;;;12.59;83.58;101179.75;5024515;28;20029;-71
2023/10/05 02:44:46;;;;;;;0.00;0.00;;;;;;;12.56;83.47;101172.06;5012218;28;20052;-71
2023/10/05 02:47:15;;;;;;;0.00;0.00;;;;;;;12.54;83.68;101163.22;5040118;28;20026;-70
2023/10/05 02:49:44;;;;;;;0.00;0.00;;;;;;;12.57;83.33;101168.19;5009906;28;20073;-73
2023/10/05 02:52:13;;;;;;;0.00;0.00;;;;;;;12.54;83.53;101168.72;5039123;28;20032;-73
2023/10/05 02:54:42;;;;;;;0.00;0.00;;;;;;;12.52;83.68;101170.91;5009837;28;20024;-74
2023/10/05 02:57:14;;;;;;;0.00;0.00;;;;;;;12.51;83.68;101166.50;5038215;28;20104;-73
2023/10/05 02:59:40;;;;;;;0.00;0.00;;;;;;;12.48;83.41;101167.84;5027255;28;20029;-72
2023/10/05 03:02:10;;;;;;;0.10;0.10;;;;;;;12.45;83.64;101184.00;5038411;28;20074;-72
2023/10/05 03:04:45;;;;;;;0.00;0.00;;;;;;;12.42;83.80;101160.66;5004568;28;20545;-71
2023/10/05 03:07:15;;;;;;;0.00;0.00;;;;;;;12.42;83.64;101165.34;5020110;28;20044;-71
2023/10/05 03:09:46;;;;;;;0.00;0.00;;;;;;;12.42;83.70;101170.81;5040697;28;20099;-71
2023/10/05 03:12:12;;;;;;;0.00;0.00;;;;;;;12.35;84.21;101155.41;5043577;28;20040;-71
2023/10/05 03:14:38;;;;;;;0.00;0.00;;;;;;;12.35;84.62;101177.34;5058415;28;20034;-72
2023/10/05 03:17:14;;;;;;;0.00;0.00;;;;;;;12.35;84.23;101168.28;5052676;28;20082;-71
2023/10/05 03:19:40;;;;;;;0.00;0.00;;;;;;;12.31;84.69;101176.22;5035359;28;20052;-71
2023/10/05 03:22:12;;;;;;;0.00;0.00;;;;;;;12.26;85.30;101172.59;5058020;28;20299;-72
2023/10/05 03:24:37;;;;;;;0.00;0.00;;;;;;;12.21;85.69;101170.63;5057558;28;20048;-73
2023/10/05 03:27:03;;;;;;;0.00;0.00;;;;;;;12.16;85.40;101162.34;5039192;28;20429;-71
2023/10/05 03:29:29;;;;;;;0.00;0.00;;;;;;;12.12;85.67;101155.72;5045993;28;20107;-72
2023/10/05 03:32:04;;;;;;;0.00;0.00;;;;;;;12.14;86.18;101153.56;5042415;28;20442;-71
2023/10/05 03:34:32;;;;;;;0.00;0.00;;;;;;;12.13;86.08;101136.25;5058949;28;20407;-73
2023/10/05 03:37:13;;;;;;;0.00;0.00;;;;;;;12.12;86.01;101129.13;5055394;28;20044;-72
2023/10/05 03:42:33;;;;;;;;;;;;;;;12.13;86.50;101105.28;5051100;28;20044;-72
2023/10/05 03:45:03;;;;;;;0.00;0.00;;;;;;;12.10;86.15;101097.59;5055374;28;19920;-71
2023/10/05 03:47:29;;;;;;;0.00;0.00;;;;;;;12.09;86.27;101123.34;5046339;28;20029;-72
2023/10/05 03:49:55;;;;;;;0.00;0.00;;;;;;;12.07;86.29;101139.22;5025329;28;20371;-71
2023/10/05 03:52:21;;;;;;;0.00;0.00;;;;;;;12.08;86.31;101147.19;5025579;28;20035;-72
2023/10/05 03:54:47;;;;;;;0.00;0.00;;;;;;;12.03;86.64;101153.44;5025989;28;20041;-71
2023/10/05 03:57:12;;;;;;;0.00;0.00;;;;;;;12.07;86.71;101163.91;5034947;28;20415;-72
2023/10/05 03:59:37;;;;;;;0.00;0.00;;;;;;;12.09;87.35;101167.19;5059904;28;20032;-72
2023/10/05 04:02:05;;;;;;;0.00;0.00;;;;;;;12.08;86.89;101160.06;5035663;28;20870;-73
2023/10/05 04:04:31;;;;;;;0.00;0.00;;;;;;;12.08;87.13;101160.91;5030669;28;20029;-72
2023/10/05 04:06:57;;;;;;;0.00;0.00;;;;;;;12.08;86.78;101165.56;5039870;28;20039;-72
2023/10/05 04:09:23;;;;;;;0.00;0.00;;;;;;;12.08;87.05;101163.63;5061856;28;20012;-72
2023/10/05 04:11:52;;;;;;;0.00;0.00;;;;;;;12.08;87.01;101168.31;5039687;28;20052;-71
2023/10/05 04:14:19;;;;;;;0.00;0.00;;;;;;;12.03;86.99;101167.16;5042236;28;20691;-72
2023/10/05 04:16:44;;;;;;;0.00;0.00;;;;;;;12.04;87.24;101177.00;5056169;28;20028;-72
2023/10/05 04:19:10;;;;;;;0.00;0.00;;;;;;;12.01;87.17;101166.56;5021531;28;20103;-74
2023/10/05 04:21:36;;;;;;;0.00;0.00;;;;;;;12.04;87.01;101174.28;5043761;28;20036;-73
2023/10/05 04:24:02;;;;;;;0.00;0.00;;;;;;;12.07;86.79;101183.09;5056326;28;20123;-73
2023/10/05 04:26:37;;;;;;;0.00;0.00;;;;;;;12.03;86.85;101174.53;5023310;28;20043;-73
2023/10/05 04:29:04;;;;;;;0.00;0.00;;;;;;;12.02;86.99;101170.97;5060515;28;20021;-74
2023/10/05 04:31:31;;;;;;;0.00;0.00;;;;;;;12.04;86.71;101181.69;5025949;28;20098;-73
2023/10/05 04:33:57;;;;;;;0.00;0.00;;;;;;;11.98;87.07;101183.53;5037978;28;20021;-73
2023/10/05 04:36:24;;;;;;;0.00;0.00;;;;;;;11.96;87.09;101190.34;5038101;28;20042;-72
2023/10/05 04:38:54;;;;;;;0.00;0.00;;;;;;;11.94;87.14;101198.81;5053224;28;20031;-72
2023/10/05 04:41:24;;;;;;;0.00;0.00;;;;;;;11.93;87.60;101205.41;5040203;28;20124;-73
2023/10/05 04:43:50;;;;;;;0.00;0.00;;;;;;;11.90;88.12;101207.78;5051797;28;20112;-73
2023/10/05 04:46:18;;;;;;;0.00;0.00;;;;;;;11.87;87.84;101203.63;5058062;28;20140;-72
2023/10/05 04:48:55;;;;;;;0.00;0.00;;;;;;;11.85;88.57;101205.81;5044103;28;20059;-71
2023/10/05 04:51:24;;;;;;;0.00;0.00;;;;;;;11.83;87.92;101202.53;5038345;28;20120;-72
2023/10/05 04:53:54;;;;;;;0.00;0.00;;;;;;;11.82;88.23;101198.13;5033325;28;20485;-72
2023/10/05 05:07:09;;;;;;;0.00;0.00;;;;;;;11.85;88.61;101183.91;5049190;28;20075;-72
2023/10/05 05:09:39;;;;;;;0.00;0.00;;;;;;;11.83;88.08;101199.78;5035244;28;20021;-72
2023/10/05 05:12:16;;;;;;;0.00;0.00;;;;;;;11.79;88.62;101201.38;5051930;28;20055;-71
2023/10/05 05:14:42;;;;;;;0.00;0.00;;;;;;;11.81;88.63;101201.94;5038163;28;20479;-70
2023/10/05 05:17:11;;;;;;;0.00;0.00;;;;;;;11.76;88.64;101208.19;5021861;28;20131;-73
2023/10/05 05:19:39;;;;;;;0.05;0.05;;;;;;;11.80;88.79;101214.00;5047241;28;20379;-71
2023/10/05 05:22:05;;;;;;;0.00;0.00;;;;;;;11.79;88.72;101193.16;5044006;28;20067;-72
2023/10/05 05:24:32;;;;;;;0.00;0.00;;;;;;;11.73;88.56;101180.47;5064325;28;20107;-72
2023/10/05 05:27:00;;;;;;;0.00;0.00;;;;;;;11.76;88.56;101190.94;5042081;28;20040;-71
2023/10/05 05:29:35;;;;;;;0.00;0.00;;;;;;;11.70;88.85;101185.38;5030267;28;20124;-73
2023/10/05 05:32:13;;;;;;;;;;;;;;;11.74;88.66;101206.78;5065552;28;20497;-71
2023/10/05 05:34:43;;;;;;;0.00;0.00;;;;;;;11.73;88.61;101191.44;5033069;28;19919;-71
2023/10/05 05:37:43;;;;;;;0.00;0.00;;;;;;;11.70;89.08;101203.72;5052229;28;20051;-72
2023/10/05 05:40:10;;;;;;;0.00;0.00;;;;;;;11.72;88.71;101203.47;5051411;28;20029;-72
2023/10/05 05:42:35;;;;;;;0.00;0.00;;;;;;;11.76;88.74;101207.38;5039821;28;20028;-71
2023/10/05 05:45:06;;;;;;;0.00;0.00;;;;;;;11.74;88.98;101198.56;5059936;28;20033;-70
2023/10/05 05:47:33;;;;;;;0.00;0.00;;;;;;;11.76;89.11;101201.88;5046617;28;20044;-72
2023/10/05 05:50:00;;;;;;;0.00;0.00;;;;;;;11.82;88.73;101200.84;5042908;28;20056;-71
2023/10/05 05:52:26;;;;;;;0.00;0.00;;;;;;;11.81;88.86;101194.56;5066967;28;20033;-71
2023/10/05 05:54:52;;;;;;;0.00;0.00;;;;;;;11.82;88.40;101179.75;5038093;28;20685;-71
2023/10/05 05:57:19;;;;;;;0.00;0.00;;;;;;;11.86;88.46;101196.53;5048450;28;20111;-72
2023/10/05 05:59:45;;;;;;;0.00;0.00;;;;;;;11.93;88.41;101208.16;5061236;28;20086;-72
2023/10/05 06:02:10;;;;;;;0.00;0.00;;;;;;;11.97;88.16;101192.00;5040219;28;20452;-72
2023/10/05 06:04:41;;;;;;;0.00;0.00;;;;;;;11.99;88.17;101185.19;5031196;28;20124;-71
2023/10/05 06:07:13;;;;;;;0.00;0.00;;;;;;;11.97;87.83;101184.63;5053864;28;20048;-71
2023/10/05 06:09:45;;;;;;;0.00;0.00;;;;;;;11.92;87.87;101184.53;5060379;28;20066;-72
2023/10/05 06:12:11;;;;;;;0.00;0.00;;;;;;;11.92;88.43;101203.72;5035154;28;20041;-71
2023/10/05 06:14:38;;;;;;;0.00;0.00;;;;;;;11.90;88.86;101205.91;5061629;28;20059;-74
2023/10/05 06:17:04;;;;;;;0.00;0.00;;;;;;;11.82;88.95;101217.31;5039630;28;20028;-73
2023/10/05 06:19:29;;;;;;;0.00;0.00;;;;;;;11.78;89.24;101216.97;5022736;28;20475;-72
2023/10/05 06:21:54;;;;;;;0.00;0.00;;;;;;;11.88;89.41;101229.97;5051486;28;20448;-71
2023/10/05 06:24:20;;;;;;;0.00;0.00;;;;;;;11.84;89.09;101205.00;5056220;28;20041;-71
2023/10/05 06:26:45;;;;;;;0.00;0.00;;;;;;;11.86;89.09;101197.34;5028000;28;20094;-71
2023/10/05 06:29:13;;;;;;;0.00;0.00;;;;;;;11.83;89.26;101197.84;5055098;28;20552;-76
2023/10/05 06:31:40;;;;;;;0.00;0.00;;;;;;;11.82;89.71;101209.06;5059541;28;20131;-75
2023/10/05 06:34:09;;;;;;;0.00;0.00;;;;;;;11.80;90.39;101220.28;5033832;28;20053;-74
2023/10/05 06:36:39;;;;;;;0.00;0.00;;;;;;;11.75;90.82;101228.44;5038702;28;20083;-77
2023/10/05 06:39:14;;;;;;;0.00;0.00;;;;;;;11.70;91.03;101209.22;5044267;28;20406;-75
2023/10/05 06:41:40;;;;;;;0.00;0.00;;;;;;;11.79;92.06;101221.38;5025007;28;20067;-73
2023/10/05 06:44:10;;;;;;;0.00;0.00;;;;;;;11.85;92.37;101217.59;5044123;28;20253;-73
2023/10/05 06:46:37;;;;;;;0.00;0.00;;;;;;;11.94;91.97;101215.28;5041424;28;20478;-75
2023/10/05 06:49:05;;;;;;;0.00;0.00;;;;;;;11.92;92.04;101190.00;5027062;28;20104;-74
2023/10/05 06:51:33;;;;;;;0.00;0.00;;;;;;;12.20;91.64;101221.06;5052311;28;20044;-74
2023/10/05 06:53:59;;;;;;;0.00;0.00;;;;;;;12.25;91.17;101210.16;5061625;28;20028;-74
2023/10/05 06:56:28;;;;;;;0.00;0.00;;;;;;;12.39;91.04;101222.34;5043295;28;20090;-74
2023/10/05 06:58:54;;;;;;;0.00;0.00;;;;;;;12.54;90.77;101218.09;5060851;28;20385;-76
2023/10/05 07:01:22;;;;;;;0.00;0.00;;;;;;;12.67;89.80;101223.16;5039894;28;20033;-75
2023/10/05 07:03:55;;;;;;;0.10;0.10;;;;;;;12.82;89.63;101216.16;5015769;28;20033;-74
2023/10/05 07:06:27;;;;;;;0.00;0.00;;;;;;;13.07;88.62;101229.28;5068230;28;20347;-74
2023/10/05 07:08:53;;;;;;;0.00;0.00;;;;;;;13.21;87.89;101229.63;5039241;28;20111;-75
2023/10/05 07:11:19;;;;;;;0.00;0.00;;;;;;;13.33;86.74;101227.53;5016962;28;20120;-75
2023/10/05 07:13:46;;;;;;;0.00;0.00;;;;;;;13.51;86.43;101241.97;5027086;28;20379;-74
2023/10/05 07:16:15;;;;;;;0.00;0.00;;;;;;;13.55;86.15;101237.56;5053745;28;20035;-75
2023/10/05 07:18:43;;;;;;;0.00;0.00;;;;;;;13.57;85.45;101224.41;5033847;28;20860;-74
2023/10/05 07:21:09;;;;;;;0.00;0.00;;;;;;;13.57;85.45;101232.66;5045115;28;20032;-72
2023/10/05 07:23:39;;;;;;;0.00;0.00;;;;;;;13.54;85.41;101260.66;5057352;28;20078;-74
2023/10/05 07:26:11;;;;;;;0.00;0.00;;;;;;;13.49;85.55;101266.97;5037900;28;20043;-74
2023/10/05 07:28:37;;;;;;;0.00;0.00;;;;;;;13.47;85.61;101274.63;5043500;28;20025;-75
2023/10/05 07:31:05;;;;;;;0.00;0.00;;;;;;;13.47;85.64;101291.09;5039674;28;20086;-73
2023/10/05 07:33:33;;;;;;;0.00;0.00;;;;;;;13.42;85.84;101282.84;5021551;28;20063;-74
2023/10/05 07:35:59;;;;;;;0.00;0.00;;;;;;;13.41;85.92;101271.00;5041377;28;20070;-74
2023/10/05 07:38:28;;;;;;;0.00;0.00;;;;;;;13.35;85.87;101265.75;5028989;28;20052;-73
2023/10/05 07:40:54;;;;;;;0.00;0.00;;;;;;;13.39;86.24;101261.38;5046686;28;20029;-73
2023/10/05 07:43:20;;;;;;;0.00;0.00;;;;;;;13.39;86.39;101266.84;5039003;28;20387;-74
2023/10/05 07:45:45;;;;;;;0.00;0.00;;;;;;;13.43;86.28;101270.75;5058294;28;20031;-73
2023/10/05 07:48:11;;;;;;;0.00;0.00;;;;;;;13.36;86.12;101260.00;5028148;28;20036;-74
2023/10/05 07:50:37;;;;;;;0.00;0.00;;;;;;;13.47;86.18;101257.31;5065260;28;20463;-74
2023/10/05 07:53:02;;;;;;;0.00;0.00;;;;;;;13.52;86.46;101251.84;5053478;28;20029;-75
2023/10/05 07:55:28;;;;;;;0.00;0.00;;;;;;;13.55;85.97;101237.56;5022328;28;20024;-73
2023/10/05 07:57:54;;;;;;;0.00;0.00;;;;;;;13.66;85.89;101233.78;5060508;28;20406;-74
2023/10/05 08:00:20;;;;;;;0.00;0.00;;;;;;;13.83;85.25;101230.00;5039996;28;20128;-74
2023/10/05 08:02:46;;;;;;;0.00;0.00;;;;;;;14.00;84.84;101254.56;5057636;28;20070;-75
2023/10/05 08:05:12;;;;;;;0.00;0.00;;;;;;;14.07;84.51;101261.44;4992820;28;20093;-74
2023/10/05 08:07:38;;;;;;;0.00;0.00;;;;;;;14.09;83.81;101264.78;5046876;28;20800;-73
2023/10/05 08:10:04;;;;;;;0.00;0.00;;;;;;;14.20;83.70;101279.38;5060456;28;20024;-76
2023/10/05 08:12:30;;;;;;;0.00;0.00;;;;;;;14.28;83.34;101283.53;5057300;28;20122;-73
2023/10/05 08:14:56;;;;;;;0.00;0.00;;;;;;;14.42;83.11;101272.84;5023353;28;20040;-74
2023/10/05 08:17:22;;;;;;;0.00;0.00;;;;;;;14.56;82.67;101268.50;5035154;28;20074;-74
2023/10/05 08:19:50;;;;;;;0.00;0.00;;;;;;;14.92;81.78;101274.09;5061238;28;20024;-75
2023/10/05 08:22:20;;;;;;;0.00;0.00;;;;;;;15.45;81.61;101254.47;5061861;28;20469;-75
2023/10/05 08:24:46;;;;;;;0.00;0.00;;;;;;;16.15;78.75;101270.28;5028718;28;20119;-74
2023/10/05 08:27:14;;;;;;;0.00;0.00;;;;;;;16.89;76.76;101255.75;5040741;28;20079;-74
2023/10/05 08:29:40;;;;;;;0.00;0.00;;;;;;;17.50;73.96;101265.41;5036166;28;20033;-77
2023/10/05 08:32:07;;;;;;;0.00;0.00;;;;;;;18.16;71.71;101281.59;5027325;28;20387;-75
2023/10/05 08:34:32;;;;;;;0.00;0.00;;;;;;;18.41;68.68;101291.47;5027440;28;20043;-75
2023/10/05 08:36:57;;;;;;;0.00;0.00;;;;;;;18.29;68.68;101295.50;5038953;28;20456;-75
2023/10/05 08:39:26;;;;;;;0.00;0.00;;;;;;;18.28;68.47;101307.72;5051417;28;20118;-74
2023/10/05 08:42:02;;;;;;;0.00;0.00;;;;;;;18.49;67.80;101310.22;5058024;28;20103;-76
2023/10/05 08:44:30;;;;;;;0.00;0.00;;;;;;;20.23;64.38;101302.81;5044455;28;20145;-75
2023/10/05 08:46:56;;;;;;;0.00;0.00;;;;;;;21.91;57.34;101304.56;5052083;28;21417;-75
2023/10/05 08:49:23;;;;;;;0.00;0.00;;;;;;;23.99;50.83;101311.59;5041178;28;20112;-76
2023/10/05 08:51:50;;;;;;;0.00;0.00;;;;;;;24.14;49.08;101313.03;5041868;28;20037;-74
2023/10/05 08:54:16;;;;;;;0.00;0.00;;;;;;;23.01;50.84;101312.97;5043254;28;20029;-75
2023/10/05 08:56:47;;;;;;;0.00;0.00;;;;;;;21.77;52.12;101329.75;5028859;28;20031;-76
2023/10/05 08:59:13;;;;;;;0.00;0.00;;;;;;;21.44;55.02;101330.00;5046415;28;20016;-75
2023/10/05 09:01:42;;;;;;;0.00;0.00;;;;;;;22.82;53.33;101321.69;5051097;28;20051;-74
2023/10/05 09:04:23;;;;;;;0.00;0.00;;;;;;;25.08;49.37;101317.44;5062286;28;20029;-75
2023/10/05 09:07:08;;;;;;;0.00;0.00;;;;;;;26.45;46.48;101310.88;5044564;28;20021;-75
2023/10/05 09:09:39;;;;;;;0.00;0.00;;;;;;;25.89;46.23;101317.91;5058985;28;20127;-75
2023/10/05 09:12:37;;;;;;;0.00;0.00;;;;;;;25.33;47.93;101317.56;5056999;28;20151;-74
2023/10/05 09:15:27;;;;;;;0.00;0.00;;;;;;;26.43;46.28;101310.41;5040383;28;20111;-74
2023/10/05 09:17:58;;;;;;;0.00;0.00;;;;;;;28.69;42.71;101326.91;5028219;28;20032;-74
2023/10/05 09:20:31;;;;;;;0.00;0.00;;;;;;;30.07;40.58;101322.66;5039327;28;20021;-74
2023/10/05 09:23:24;;;;;;;0.00;0.00;;;;;;;30.08;39.55;101329.94;5059722;28;20016;-75
2023/10/05 09:25:50;;;;;;;0.00;0.00;;;;;;;30.49;36.51;101326.53;5041291;28;20297;-73
2023/10/05 09:28:51;;;;;;;0.00;0.00;;;;;;;31.70;33.87;101319.88;5056753;28;20025;-74
2023/10/05 09:31:19;;;;;;;0.00;0.00;;;;;;;31.48;33.26;101319.69;5043975;28;20390;-73
2023/10/05 09:33:53;;;;;;;0.00;0.00;;;;;;;30.75;33.13;101328.50;5060847;28;20039;-74
2023/10/05 09:36:22;;;;;;;0.00;0.00;;;;;;;28.96;36.14;101331.88;5062488;28;20099;-74
2023/10/05 09:38:48;;;;;;;0.00;0.00;;;;;;;27.14;39.08;101336.19;5042510;28;20123;-74
2023/10/05 09:41:21;;;;;;;0.00;0.00;;;;;;;25.89;41.46;101323.50;5061053;28;20028;-74
2023/10/05 09:43:58;;;;;;;0.00;0.00;;;;;;;26.51;41.95;101325.50;5041480;28;20037;-75
2023/10/05 09:46:27;;;;;;;0.00;0.00;;;;;;;26.81;40.12;101320.41;5050005;28;20021;-75
2023/10/05 09:48:53;;;;;;;0.00;0.00;;;;;;;26.27;42.26;101327.97;5055827;28;20478;-75
2023/10/05 09:51:19;;;;;;;0.00;0.00;;;;;;;27.23;40.25;101327.59;5056261;28;20121;-74
2023/10/05 09:53:47;;;;;;;0.00;0.00;;;;;;;27.92;38.46;101319.81;5034696;28;20111;-74
2023/10/05 09:56:13;;;;;;;0.00;0.00;;;;;;;27.64;37.46;101331.13;5040434;28;20663;-75
2023/10/05 09:58:41;;;;;;;0.00;0.00;;;;;;;25.96;38.44;101320.09;5050175;28;20178;-75
2023/10/05 10:01:13;;;;;;;0.00;0.00;;;;;;;25.10;41.14;101331.91;5061219;28;20028;-73
2023/10/05 10:03:45;;;;;;;0.00;0.00;;;;;;;24.28;42.32;101329.53;5061443;28;20026;-73
2023/10/05 10:06:13;;;;;;;0.00;0.00;;;;;;;23.38;43.90;101314.56;5059399;28;20058;-73
2023/10/05 10:08:57;;;;;;;0.00;0.00;;;;;;;22.48;46.15;101314.91;5064390;28;20024;-76
2023/10/05 10:11:31;;;;;;;0.00;0.00;;;;;;;23.62;44.60;101320.41;5063472;28;20025;-73
2023/10/05 10:14:01;;;;;;;0.00;0.00;;;;;;;25.33;41.13;101311.97;5064001;28;20389;-73
2023/10/05 10:16:28;;;;;;;0.00;0.00;;;;;;;24.89;40.50;101304.75;5060386;28;20032;-73
2023/10/05 10:19:06;;;;;;;0.00;0.00;;;;;;;25.59;40.03;101308.88;5038761;28;20050;-74
2023/10/05 10:21:36;;;;;;;0.00;0.00;;;;;;;25.27;39.17;101300.94;5043705;28;20024;-75
2023/10/05 10:24:04;;;;;;;0.00;0.00;;;;;;;24.07;41.98;101318.31;5053450;28;20077;-75
2023/10/05 10:26:42;;;;;;;0.00;0.00;;;;;;;23.15;43.57;101318.38;5049595;28;20078;-73
2023/10/05 10:29:11;;;;;;;0.00;0.00;;;;;;;23.40;44.33;101307.50;5052276;28;20031;-72
2023/10/05 10:31:47;;;;;;;0.00;0.00;;;;;;;23.27;43.86;101303.75;5041019;28;20429;-74
2023/10/05 10:34:28;;;;;;;0.00;0.00;;;;;;;22.81;44.66;101281.00;5061884;28;20016;-74
2023/10/05 10:36:57;;;;;;;0.00;0.00;;;;;;;22.56;45.55;101279.00;5050031;28;20023;-76
2023/10/05 10:39:31;;;;;;;0.00;0.00;;;;;;;22.16;46.38;101291.06;5059733;28;20470;-75
2023/10/05 10:42:04;;;;;;;0.00;0.00;;;;;;;21.85;47.64;101291.13;5066292;28;20043;-74
2023/10/05 10:47:16;;;;;;;0.00;0.00;;;;;;;22.77;46.85;101313.47;5049187;28;20470;-74
2023/10/05 10:50:11;;;;;;;0.00;0.00;;;;;;;24.06;43.70;101300.72;5059127;28;20048;-74
2023/10/05 10:52:36;;;;;;;0.00;0.00;;;;;;;23.60;44.27;101305.19;5064348;28;20046;-74
2023/10/05 10:55:03;;;;;;;0.00;0.00;;;;;;;22.94;45.46;101283.91;5040678;28;20036;-75
2023/10/05 10:57:30;;;;;;;0.00;0.00;;;;;;;22.72;46.50;101294.13;5033043;28;20052;-74
2023/10/05 11:02:39;;;;;;;0.00;0.00;;;;;;;22.52;47.25;101294.78;5060934;28;20032;-74
2023/10/05 11:05:05;;;;;;;0.00;0.00;;;;;;;22.69;47.33;101297.53;5046823;28;20029;-74
2023/10/05 11:07:34;;;;;;;0.00;0.00;;;;;;;22.74;46.34;101302.97;5041866;28;20494;-75
2023/10/05 11:10:03;;;;;;;0.00;0.00;;;;;;;24.14;45.49;101296.25;5058670;28;20096;-74
2023/10/05 11:12:29;;;;;;;0.00;0.00;;;;;;;27.17;37.86;101298.97;5029727;28;20053;-73
2023/10/05 11:15:18;;;;;;;0.00;0.00;;;;;;;26.47;37.52;101311.34;5043770;28;20069;-74
2023/10/05 11:18:01;;;;;;;;;;;;;;;;;;;;;
2023/10/05 11:20:33;;;;;;;0.00;0.00;;;;;;;24.05;42.05;101285.13;5059956;28;20035;-78
2023/10/05 11:23:03;;;;;;;0.00;0.00;;;;;;;23.20;44.10;101291.47;5027557;28;20044;-76
2023/10/05 11:25:35;;;;;;;0.00;0.00;;;;;;;22.51;45.32;101281.97;5044001;28;20032;-77
2023/10/05 11:28:01;;;;;;;0.00;0.00;;;;;;;21.87;46.52;101280.47;5046947;28;20498;-74
2023/10/05 11:30:41;;;;;;;0.00;0.00;;;;;;;21.42;48.47;101276.66;5071298;28;20028;-74
2023/10/05 11:33:15;;;;;;;0.00;0.00;;;;;;;20.95;50.05;101290.09;5044618;28;20031;-76
2023/10/05 11:35:48;;;;;;;0.00;0.00;;;;;;;20.30;51.76;101289.34;5060513;28;20084;-75
2023/10/05 11:38:16;;;;;;;0.00;0.00;;;;;;;19.93;53.89;101293.16;5059781;28;20016;-76
2023/10/05 11:40:49;;;;;;;0.00;0.00;;;;;;;19.55;54.73;101277.47;5061213;28;20036;-76
2023/10/05 11:43:16;;;;;;;0.00;0.00;;;;;;;19.58;55.23;101289.91;5061851;28;20054;-75
2023/10/05 11:46:17;;;;;;;0.00;0.00;;;;;;;19.80;54.66;101295.63;5065104;28;20016;-76
2023/10/05 11:48:51;;;;;;;0.00;0.00;;;;;;;20.13;53.57;101264.97;5061238;28;20020;-75
2023/10/05 11:51:20;;;;;;;0.00;0.00;;;;;;;20.61;52.85;101280.31;5044671;28;20032;-76
2023/10/05 11:53:50;;;;;;;0.00;0.00;;;;;;;20.80;51.38;101259.91;5073199;28;20111;-75
2023/10/05 11:56:17;;;;;;;0.00;0.00;;;;;;;21.19;51.00;101278.66;5014323;28;20032;-75
2023/10/05 11:58:46;;;;;;;0.00;0.00;;;;;;;21.25;50.95;101265.44;5059655;28;20024;-75
2023/10/05 12:01:12;;;;;;;0.00;0.00;;;;;;;21.00;51.73;101266.91;5037520;28;20108;-75
2023/10/05 12:03:44;;;;;;;0.00;0.00;;;;;;;20.57;51.88;101265.38;5068868;28;20027;-74
2023/10/05 12:06:11;;;;;;;0.00;0.00;;;;;;;19.97;53.97;101275.56;5056548;28;20032;-75